Time;durP1;ratioP1;P1;durP2;ratioP2;P2;SDS_P1;SDS_P2;PMS_P1;PMS_P2;Temp;Humidity;BMP_temperature;BMP_pressure;BME280_temperature;BME280_humidity;BME280_pressure;Samples;Min_cycle;Max_cycle;Signal;HPM_P1;HPM_P2
2024/04/22 00:01:49;;;;;;;19.25;4.55;;;2.90;96.80;;;;;;5467079;26;20447;-85
2024/04/22 00:04:15;;;;;;;16.52;4.10;;;2.70;99.10;;;;;;5435809;26;20286;-85
2024/04/22 00:06:43;;;;;;;15.70;3.97;;;2.70;99.10;;;;;;5466518;26;20217;-85
2024/04/22 00:09:10;;;;;;;21.02;5.15;;;2.70;99.90;;;;;;5434366;26;20214;-85
2024/04/22 00:11:35;;;;;;;17.40;3.92;;;2.70;99.90;;;;;;5466630;26;20285;-85
2024/04/22 00:14:01;;;;;;;16.43;4.07;;;2.60;99.10;;;;;;5466520;26;20206;-85
2024/04/22 00:16:27;;;;;;;21.17;4.30;;;2.70;99.90;;;;;;5465335;26;20321;-85
2024/04/22 00:18:53;;;;;;;16.07;4.43;;;2.70;99.90;;;;;;5466773;26;20439;-85
2024/04/22 00:21:18;;;;;;;17.87;3.30;;;2.60;99.90;;;;;;5466528;26;20239;-85
2024/04/22 00:23:44;;;;;;;16.10;3.23;;;2.50;99.90;;;;;;5433659;26;20210;-85
2024/04/22 00:26:10;;;;;;;16.30;4.63;;;2.50;99.90;;;;;;5466440;26;20256;-85
2024/04/22 00:28:35;;;;;;;16.37;4.20;;;2.50;99.90;;;;;;5466830;26;20229;-85
2024/04/22 00:31:01;;;;;;;17.27;4.30;;;2.60;99.90;;;;;;5466359;26;20218;-85
2024/04/22 00:33:27;;;;;;;17.00;3.93;;;2.50;99.90;;;;;;5434795;26;20229;-85
2024/04/22 00:35:57;;;;;;;16.57;4.60;;;2.50;99.90;;;;;;5434411;26;20221;-85
2024/04/22 00:38:27;;;;;;;20.45;4.72;;;2.50;99.90;;;;;;5434840;26;20213;-85
2024/04/22 00:40:53;;;;;;;17.90;4.30;;;2.50;99.90;;;;;;5465570;26;20248;-85
2024/04/22 00:43:19;;;;;;;15.80;4.07;;;2.40;99.90;;;;;;5466461;26;20205;-85
2024/04/22 00:45:45;;;;;;;18.00;4.20;;;2.40;99.90;;;;;;5465850;26;20336;-85
2024/04/22 00:48:13;;;;;;;15.73;3.78;;;2.40;99.90;;;;;;5433242;26;20244;-85
2024/04/22 00:50:40;;;;;;;19.10;4.78;;;2.40;99.90;;;;;;5434603;26;20229;-85
2024/04/22 00:53:07;;;;;;;15.35;3.53;;;2.40;99.90;;;;;;5404051;26;20229;-85
2024/04/22 00:55:33;;;;;;;17.42;4.47;;;2.40;99.90;;;;;;5465876;26;20209;-85
2024/04/22 00:58:03;;;;;;;15.95;3.78;;;2.30;99.90;;;;;;5465934;26;20706;-85
2024/04/22 01:00:29;;;;;;;16.02;4.18;;;2.30;99.90;;;;;;5466073;26;20244;-85
2024/04/22 01:02:55;;;;;;;15.95;3.97;;;2.20;99.90;;;;;;5464768;26;20301;-85
2024/04/22 01:05:21;;;;;;;15.52;3.85;;;2.30;99.90;;;;;;5465812;26;20229;-85
2024/04/22 01:07:47;;;;;;;16.83;3.60;;;2.40;99.90;;;;;;5433831;26;20218;-85
2024/04/22 01:10:13;;;;;;;18.17;4.63;;;2.30;99.90;;;;;;5433930;26;20354;-85
2024/04/22 01:12:38;;;;;;;17.60;4.57;;;2.30;99.90;;;;;;5465657;26;20217;-85
2024/04/22 01:15:04;;;;;;;16.10;4.07;;;2.20;99.90;;;;;;5465880;26;20675;-85
2024/04/22 01:17:41;;;;;;;18.20;4.10;;;2.20;99.90;;;;;;5465273;26;20206;-85
2024/04/22 01:20:10;;;;;;;18.38;4.78;;;2.20;99.90;;;;;;5433469;26;20241;-85
2024/04/22 01:22:37;;;;;;;16.85;3.78;;;2.10;99.90;;;;;;5433240;26;20269;-85
2024/04/22 01:25:03;;;;;;;16.35;4.38;;;2.10;99.90;;;;;;5465127;26;20256;-85
2024/04/22 01:27:31;;;;;;;17.75;3.53;;;2.10;99.90;;;;;;5465618;26;20225;-85
2024/04/22 01:29:57;;;;;;;16.77;3.70;;;2.10;99.90;;;;;;5464925;26;20289;-85
2024/04/22 01:32:23;;;;;;;18.23;5.10;;;2.10;99.90;;;;;;5465257;26;20325;-85
2024/04/22 01:34:50;;;;;;;18.10;4.17;;;2.10;99.90;;;;;;5433511;26;20276;-85
2024/04/22 01:37:16;;;;;;;16.30;3.80;;;2.10;99.90;;;;;;5464356;26;20431;-84
2024/04/22 01:39:42;;;;;;;17.37;4.60;;;2.10;99.90;;;;;;5464851;26;20252;-85
2024/04/22 01:42:10;;;;;;;18.52;4.20;;;2.00;99.90;;;;;;5464548;26;20485;-85
2024/04/22 01:44:36;;;;;;;17.10;3.60;;;2.10;99.90;;;;;;5464856;26;20273;-85
2024/04/22 01:47:02;;;;;;;17.10;3.90;;;2.10;99.90;;;;;;5464628;26;20209;-85
2024/04/22 01:49:28;;;;;;;18.00;4.60;;;2.10;99.90;;;;;;5464566;26;20252;-85
2024/04/22 01:51:53;;;;;;;18.30;4.47;;;2.20;99.90;;;;;;5432877;26;20566;-85
2024/04/22 01:54:19;;;;;;;16.50;4.00;;;2.10;99.90;;;;;;5464473;26;20428;-85
2024/04/22 01:56:46;;;;;;;16.57;3.57;;;2.10;99.90;;;;;;5432927;26;20236;-85
2024/04/22 01:59:11;;;;;;;15.45;3.88;;;2.10;99.90;;;;;;5433645;26;20260;-85
2024/04/22 02:01:40;;;;;;;16.10;4.10;;;2.00;99.90;;;;;;5464386;26;20713;-85
2024/04/22 02:04:06;;;;;;;18.45;4.80;;;2.00;99.90;;;;;;5464738;26;20295;-85
2024/04/22 02:06:31;;;;;;;17.37;4.17;;;2.00;99.90;;;;;;5465355;26;20217;-85
2024/04/22 02:08:57;;;;;;;17.30;4.57;;;2.00;99.90;;;;;;5464782;26;20682;-85
2024/04/22 02:11:23;;;;;;;16.70;3.83;;;2.00;99.90;;;;;;5463692;26;20218;-84
2024/04/22 02:13:48;;;;;;;15.97;3.50;;;2.00;99.90;;;;;;5463970;26;20217;-84
2024/04/22 02:16:14;;;;;;;16.97;4.50;;;2.10;99.90;;;;;;5464046;26;20214;-84
2024/04/22 02:18:39;;;;;;;16.47;3.67;;;2.20;99.90;;;;;;5463917;26;20256;-85
2024/04/22 02:21:05;;;;;;;20.60;5.10;;;2.20;99.90;;;;;;5464013;26;20290;-84
2024/04/22 02:23:31;;;;;;;19.30;3.90;;;2.20;99.90;;;;;;5463957;26;20217;-84
2024/04/22 02:25:59;;;;;;;15.03;3.40;;;2.10;99.90;;;;;;5464010;26;20205;-85
2024/04/22 02:28:25;;;;;;;16.40;3.78;;;2.10;99.90;;;;;;5463362;26;20225;-84
2024/04/22 02:30:51;;;;;;;17.50;4.07;;;2.20;99.90;;;;;;5431969;26;20317;-84
2024/04/22 02:33:16;;;;;;;15.27;3.30;;;2.10;99.90;;;;;;5463672;26;20221;-83
2024/04/22 02:35:42;;;;;;;14.43;3.27;;;2.10;99.90;;;;;;5463664;26;20609;-84
2024/04/22 02:38:08;;;;;;;16.67;3.83;;;2.20;99.90;;;;;;5462515;26;20205;-83
2024/04/22 02:40:33;;;;;;;15.37;3.77;;;2.20;99.90;;;;;;5462938;26;20229;-84
2024/04/22 02:42:59;;;;;;;17.10;4.00;;;2.20;99.90;;;;;;5463609;26;20256;-85
2024/04/22 02:45:26;;;;;;;17.07;4.47;;;2.20;99.90;;;;;;5462931;26;20205;-85
2024/04/22 02:47:52;;;;;;;17.67;4.75;;;2.20;99.90;;;;;;5465433;26;20255;-84
2024/04/22 02:50:17;;;;;;;17.67;4.07;;;2.20;99.90;;;;;;5434659;26;20221;-83
2024/04/22 02:52:43;;;;;;;16.53;4.00;;;2.20;99.90;;;;;;5466967;26;20314;-85
2024/04/22 02:55:12;;;;;;;14.53;3.33;;;2.20;99.90;;;;;;5467579;26;20206;-85
2024/04/22 02:57:37;;;;;;;16.17;3.58;;;2.20;99.90;;;;;;5466588;26;20205;-85
2024/04/22 03:00:04;;;;;;;15.90;4.50;;;2.20;99.90;;;;;;5434611;26;20690;-85
2024/04/22 03:02:30;;;;;;;16.92;4.63;;;2.20;99.90;;;;;;5466623;26;20247;-85
2024/04/22 03:04:56;;;;;;;16.35;4.20;;;2.30;99.90;;;;;;5434716;26;20240;-85
2024/04/22 03:07:22;;;;;;;17.23;4.20;;;2.30;99.90;;;;;;5466274;26;20576;-85
2024/04/22 03:09:49;;;;;;;15.70;4.10;;;2.40;99.90;;;;;;5435260;26;20593;-84
2024/04/22 03:12:15;;;;;;;16.75;4.70;;;2.40;99.90;;;;;;5434864;26;20303;-84
2024/04/22 03:14:40;;;;;;;17.27;3.90;;;2.30;99.90;;;;;;5435376;26;20229;-85
2024/04/22 03:17:09;;;;;;;17.30;4.03;;;2.50;99.90;;;;;;5466805;26;20255;-84
2024/04/22 03:19:34;;;;;;;16.85;4.05;;;2.50;99.90;;;;;;5466397;26;20430;-85
2024/04/22 03:22:00;;;;;;;20.50;4.20;;;2.60;99.90;;;;;;5466779;26;20335;-85
2024/04/22 03:24:26;;;;;;;16.93;4.83;;;2.70;99.90;;;;;;5466707;26;20213;-85
2024/04/22 03:26:51;;;;;;;17.50;4.90;;;2.80;99.90;;;;;;5467153;26;20256;-85
2024/04/22 03:29:20;;;;;;;17.80;4.77;;;2.80;99.90;;;;;;5437012;26;20213;-83
2024/04/22 03:31:46;;;;;;;17.27;5.15;;;2.80;99.90;;;;;;5443020;26;20225;-84
2024/04/22 03:34:11;;;;;;;16.80;5.17;;;2.80;99.90;;;;;;5473888;26;20256;-84
2024/04/22 03:36:37;;;;;;;17.00;4.50;;;2.80;99.90;;;;;;5441943;26;20442;-83
2024/04/22 03:39:07;;;;;;;19.97;5.07;;;2.70;99.90;;;;;;5442207;26;20486;-83
2024/04/22 03:41:32;;;;;;;20.88;4.72;;;2.70;99.90;;;;;;5436226;26;21092;-85
2024/04/22 03:43:58;;;;;;;20.10;4.70;;;2.80;99.90;;;;;;5466058;26;20213;-85
2024/04/22 03:51:52;;;;;;;17.55;4.35;;;2.60;99.90;;;;;;5466851;26;20275;-85
2024/04/22 03:54:24;;;;;;;19.07;4.60;;;2.60;99.90;;;;;;5467501;26;20225;-83
2024/04/22 03:56:55;;;;;;;17.60;5.18;;;2.60;99.90;;;;;;5441271;26;20236;-84
2024/04/22 03:59:21;;;;;;;17.52;4.60;;;2.60;99.90;;;;;;5465775;26;20193;-85
2024/04/22 04:01:46;;;;;;;20.50;5.07;;;2.60;99.90;;;;;;5433432;26;20226;-85
2024/04/22 04:04:12;;;;;;;20.30;4.93;;;2.60;99.90;;;;;;5434818;26;20213;-85
2024/04/22 04:06:38;;;;;;;18.30;4.17;;;2.60;99.90;;;;;;5471602;26;20213;-84
2024/04/22 04:09:13;;;;;;;19.63;5.38;;;2.60;99.90;;;;;;5473961;26;20252;-84
2024/04/22 04:11:39;;;;;;;19.58;5.40;;;2.60;99.90;;;;;;5434182;26;20228;-85
2024/04/22 04:14:07;;;;;;;16.02;3.38;;;2.60;99.90;;;;;;5465928;26;20209;-85
2024/04/22 04:16:33;;;;;;;21.67;5.20;;;2.50;99.90;;;;;;5433632;26;20221;-84
2024/04/22 04:18:59;;;;;;;17.95;4.60;;;2.50;99.90;;;;;;5465366;26;20217;-85
2024/04/22 04:21:27;;;;;;;18.05;4.70;;;2.50;99.90;;;;;;5465620;26;20268;-85
2024/04/22 04:23:53;;;;;;;15.52;4.25;;;2.50;99.90;;;;;;5465313;26;20210;-85
2024/04/22 04:26:20;;;;;;;19.03;5.50;;;2.50;99.90;;;;;;5465062;26;20214;-85
2024/04/22 04:28:48;;;;;;;17.00;4.72;;;2.60;99.90;;;;;;5465330;26;20233;-85
2024/04/22 04:33:42;;;;;;;20.40;4.68;;;2.70;99.90;;;;;;5423980;26;20222;-85
2024/04/22 04:36:08;;;;;;;18.87;4.60;;;2.80;99.90;;;;;;5455274;26;20214;-85
2024/04/22 04:38:35;;;;;;;17.30;5.10;;;2.80;99.90;;;;;;5455530;26;20258;-84
2024/04/22 04:41:01;;;;;;;20.67;5.80;;;2.80;99.90;;;;;;5425068;26;20222;-85
2024/04/22 04:43:27;;;;;;;19.55;6.28;;;2.80;99.90;;;;;;5426540;26;20210;-85
2024/04/22 04:45:53;;;;;;;19.80;5.00;;;2.80;99.90;;;;;;5424664;26;20253;-85
2024/04/22 04:48:22;;;;;;;19.70;6.50;;;2.90;99.90;;;;;;5426668;26;20765;-85
2024/04/22 04:50:48;;;;;;;19.30;6.03;;;2.90;99.90;;;;;;5426683;26;20460;-85
2024/04/22 04:53:14;;;;;;;19.75;5.25;;;3.00;99.90;;;;;;5424870;26;20241;-85
2024/04/22 04:55:40;;;;;;;18.65;5.25;;;3.00;99.90;;;;;;5425675;26;20211;-85
2024/04/22 04:58:06;;;;;;;17.53;4.03;;;3.00;99.90;;;;;;5426458;26;20198;-85
2024/04/22 05:00:33;;;;;;;19.13;5.70;;;3.00;99.90;;;;;;5425576;26;20566;-85
2024/04/22 05:02:59;;;;;;;18.33;5.00;;;3.10;99.90;;;;;;5427637;26;20203;-85
2024/04/22 05:05:27;;;;;;;19.00;5.50;;;3.10;99.90;;;;;;5426383;26;20236;-85
2024/04/22 05:07:55;;;;;;;18.60;5.68;;;3.10;99.90;;;;;;5425090;26;20499;-85
2024/04/22 05:10:21;;;;;;;18.17;6.07;;;3.20;99.90;;;;;;5426307;26;20260;-85
2024/04/22 05:12:50;;;;;;;19.40;6.00;;;3.20;99.90;;;;;;5426129;26;20336;-85
2024/04/22 05:15:18;;;;;;;19.20;5.88;;;3.20;99.90;;;;;;5426514;26;20266;-84
2024/04/22 05:17:44;;;;;;;18.67;5.97;;;3.30;99.90;;;;;;5426644;26;20277;-85
2024/04/22 05:20:10;;;;;;;19.67;6.57;;;3.30;99.90;;;;;;5423846;26;20323;-85
2024/04/22 05:22:36;;;;;;;21.42;6.88;;;3.40;99.90;;;;;;5427180;26;20566;-85
2024/04/22 05:25:02;;;;;;;22.33;7.15;;;3.40;99.90;;;;;;5426524;26;20252;-85
2024/04/22 05:27:28;;;;;;;18.40;5.82;;;3.40;99.90;;;;;;5426667;26;20595;-85
2024/04/22 05:29:54;;;;;;;19.63;5.72;;;3.50;99.90;;;;;;5427407;26;20340;-85
2024/04/22 05:32:20;;;;;;;21.67;7.20;;;3.50;99.90;;;;;;5447435;26;20226;-85
2024/04/22 05:37:30;;;;;;;23.88;8.35;;;3.60;99.90;;;;;;5468591;26;20305;-85
2024/04/22 05:39:56;;;;;;;22.80;8.37;;;3.60;99.90;;;;;;5468253;26;20269;-84
2024/04/22 05:42:21;;;;;;;22.53;7.63;;;3.70;99.90;;;;;;5467034;26;20438;-85
2024/04/22 05:44:47;;;;;;;20.70;8.43;;;3.80;99.90;;;;;;5434878;26;20244;-85
2024/04/22 05:47:13;;;;;;;22.23;8.43;;;3.90;99.90;;;;;;5436924;26;20239;-85
2024/04/22 05:49:38;;;;;;;23.53;7.77;;;4.00;99.90;;;;;;5468233;26;20294;-85
2024/04/22 05:52:04;;;;;;;19.27;6.93;;;4.00;99.90;;;;;;5436144;26;20511;-85
2024/04/22 05:54:31;;;;;;;24.17;7.80;;;4.10;99.90;;;;;;5469049;26;20240;-85
2024/04/22 05:56:57;;;;;;;24.00;8.38;;;4.20;99.90;;;;;;5436368;26;21015;-85
2024/04/22 05:59:23;;;;;;;22.73;8.40;;;4.30;99.90;;;;;;5468020;26;20209;-85
2024/04/22 06:01:48;;;;;;;22.30;7.43;;;4.40;99.90;;;;;;5436381;26;20221;-85
2024/04/22 06:04:14;;;;;;;22.60;7.10;;;4.50;99.90;;;;;;5436998;26;20446;-85
2024/04/22 06:06:39;;;;;;;19.60;7.50;;;4.60;99.90;;;;;;5468097;26;20210;-85
2024/04/22 06:09:15;;;;;;;22.43;8.40;;;4.70;99.90;;;;;;5437080;26;20237;-85
2024/04/22 06:11:41;;;;;;;22.00;7.45;;;4.80;99.90;;;;;;5436333;26;20225;-85
2024/04/22 06:14:07;;;;;;;21.30;7.57;;;4.90;99.90;;;;;;5468404;26;20300;-85
2024/04/22 06:16:34;;;;;;;21.63;8.45;;;5.00;99.90;;;;;;5435440;26;20690;-85
2024/04/22 06:19:00;;;;;;;21.73;8.93;;;5.10;99.90;;;;;;5467688;26;20235;-85
2024/04/22 06:21:26;;;;;;;23.05;8.48;;;5.20;99.90;;;;;;5465763;26;20302;-85
2024/04/22 06:23:52;;;;;;;19.73;6.90;;;5.30;99.90;;;;;;5467130;26;20205;-85
2024/04/22 06:26:18;;;;;;;22.90;7.37;;;5.30;99.90;;;;;;5435392;26;20482;-85
2024/04/22 06:28:44;;;;;;;22.77;8.93;;;5.40;99.90;;;;;;5435436;26;20450;-85
2024/04/22 06:31:10;;;;;;;26.02;8.65;;;5.50;99.90;;;;;;5465691;26;20580;-85
2024/04/22 06:33:40;;;;;;;21.70;8.70;;;5.60;99.90;;;;;;5434360;26;20233;-84
2024/04/22 06:36:06;;;;;;;21.13;8.10;;;5.60;99.90;;;;;;5467610;26;20209;-85
2024/04/22 06:38:32;;;;;;;22.05;7.63;;;5.60;99.90;;;;;;5466680;26;20729;-85
2024/04/22 06:40:58;;;;;;;27.27;8.57;;;5.60;99.90;;;;;;5435392;26;20229;-85
2024/04/22 06:43:26;;;;;;;21.60;6.73;;;5.70;99.90;;;;;;5467516;26;20256;-85
2024/04/22 06:45:52;;;;;;;23.60;8.35;;;5.70;99.90;;;;;;5467622;26;20205;-85
2024/04/22 06:48:17;;;;;;;20.33;7.60;;;5.80;99.90;;;;;;5466559;26;20255;-85
2024/04/22 06:51:06;;;;;;;22.60;7.40;;;5.90;99.90;;;;;;5465799;26;20225;-84
2024/04/22 06:53:32;;;;;;;24.50;7.30;;;5.90;99.60;;;;;;5417425;26;20209;-85
2024/04/22 06:55:58;;;;;;;21.50;7.10;;;6.00;98.00;;;;;;5467165;26;20209;-84
2024/04/22 06:58:23;;;;;;;21.23;7.07;;;6.00;96.50;;;;;;5466012;26;20539;-85
2024/04/22 07:00:52;;;;;;;19.83;7.00;;;6.10;93.60;;;;;;5435534;26;20256;-85
2024/04/22 07:03:17;;;;;;;20.98;7.90;;;6.10;92.30;;;;;;5466872;26;20222;-85
2024/04/22 07:05:43;;;;;;;22.63;8.00;;;6.20;88.90;;;;;;5435685;26;20252;-85
2024/04/22 07:08:09;;;;;;;22.47;7.70;;;6.20;86.10;;;;;;5464929;26;20209;-85
2024/04/22 07:10:35;;;;;;;25.10;6.70;;;6.30;80.10;;;;;;5466282;26;20217;-85
2024/04/22 07:13:00;;;;;;;22.83;8.85;;;6.40;85.30;;;;;;5466320;26;20221;-85
2024/04/22 07:15:26;;;;;;;23.07;8.30;;;6.50;78.80;;;;;;5435811;26;20209;-85
2024/04/22 07:17:52;;;;;;;21.77;8.53;;;6.50;73.70;;;;;;5468540;26;20290;-85
2024/04/22 07:20:20;;;;;;;22.07;7.60;;;6.60;59.90;;;;;;5468336;26;20247;-85
2024/04/22 07:22:49;;;;;;;22.05;7.15;;;6.60;46.50;;;;;;5467575;26;20210;-84
2024/04/22 07:25:14;;;;;;;20.90;7.07;;;6.70;43.60;;;;;;5467070;26;20239;-85
2024/04/22 07:27:42;;;;;;;23.77;7.20;;;6.70;33.90;;;;;;5439283;26;20221;-86
2024/04/22 07:30:10;;;;;;;22.60;7.28;;;6.70;17.90;;;;;;5436039;26;20260;-85
2024/04/22 07:32:36;;;;;;;24.27;7.65;;;6.80;14.70;;;;;;5468335;26;20229;-85
2024/04/22 07:35:02;;;;;;;21.07;6.60;;;6.90;1.00;;;;;;5439676;26;20211;-85
2024/04/22 07:37:36;;;;;;;26.13;6.63;;;7.00;6.10;;;;;;5471180;26;20434;-85
2024/04/22 07:40:18;;;;;;;21.98;6.68;;;7.10;1.00;;;;;;5439465;26;20252;-85
2024/04/22 07:42:45;;;;;;;23.52;5.85;;;7.40;1.00;;;;;;5472114;26;20213;-85
2024/04/22 07:45:12;;;;;;;20.50;6.40;;;7.50;1.00;;;;;;5471877;26;20221;-85
2024/04/22 07:47:41;;;;;;;18.95;5.75;;;7.60;1.00;;;;;;5441661;26;20249;-85
2024/04/22 07:50:07;;;;;;;20.23;5.72;;;7.70;1.00;;;;;;5439354;26;20229;-85
2024/04/22 07:52:33;;;;;;;19.47;5.60;;;7.90;1.00;;;;;;5472589;26;20251;-85
2024/04/22 07:55:00;;;;;;;21.20;5.30;;;8.00;1.00;;;;;;5439258;26;20240;-85
2024/04/22 07:57:26;;;;;;;23.75;5.72;;;8.10;1.00;;;;;;5470452;26;20261;-85
2024/04/22 07:59:52;;;;;;;24.02;5.90;;;8.00;1.00;;;;;;5439318;26;20219;-85
2024/04/22 08:02:18;;;;;;;20.63;5.68;;;8.00;1.00;;;;;;5469272;26;20248;-84
2024/04/22 08:04:44;;;;;;;18.60;5.27;;;8.00;1.00;;;;;;5469588;26;20205;-85
2024/04/22 08:07:13;;;;;;;17.10;5.00;;;7.90;1.00;;;;;;5438645;26;20450;-85
2024/04/22 08:09:40;;;;;;;19.75;4.88;;;7.80;1.00;;;;;;5469706;26;20489;-85
2024/04/22 08:12:06;;;;;;;19.20;5.47;;;7.80;1.00;;;;;;5438273;26;20566;-85
2024/04/22 08:14:32;;;;;;;18.83;4.72;;;7.80;1.00;;;;;;5469323;26;20299;-85
2024/04/22 08:16:58;;;;;;;18.80;5.38;;;7.70;1.00;;;;;;5471501;26;20206;-85
2024/04/22 08:20:12;;;;;;;;;;;;;;;;;;;;;
2024/04/22 08:22:38;;;;;;;19.40;4.50;;;7.70;1.00;;;;;;5413661;26;20244;-85
2024/04/22 08:25:04;;;;;;;17.23;5.07;;;7.80;1.00;;;;;;5467833;26;20257;-85
2024/04/22 08:27:30;;;;;;;17.27;3.60;;;7.80;1.00;;;;;;5467139;26;20296;-84
2024/04/22 08:29:58;;;;;;;17.37;4.13;;;7.80;1.00;;;;;;5437666;26;20500;-85
2024/04/22 08:32:27;;;;;;;17.58;4.65;;;7.80;1.00;;;;;;5437963;26;20520;-85
2024/04/22 08:34:54;;;;;;;18.60;5.50;;;7.80;1.00;;;;;;5438446;26;20224;-85
2024/04/22 08:37:20;;;;;;;18.63;4.93;;;7.80;1.00;;;;;;5471142;26;20257;-84
2024/04/22 08:39:46;;;;;;;17.77;4.18;;;7.80;1.00;;;;;;5469910;26;20174;-86
2024/04/22 08:42:15;;;;;;;17.67;4.50;;;7.80;1.00;;;;;;5470207;26;20343;-85
2024/04/22 08:44:41;;;;;;;21.27;5.20;;;7.80;1.00;;;;;;5470656;26;20206;-86
2024/04/22 08:47:07;;;;;;;21.43;4.43;;;7.90;1.00;;;;;;5436745;26;20274;-85
2024/04/22 08:49:39;;;;;;;18.60;4.78;;;8.10;1.00;;;;;;5470053;26;20481;-85
2024/04/22 08:52:08;;;;;;;17.50;4.28;;;8.00;1.00;;;;;;5438794;26;20231;-85
2024/04/22 08:54:35;;;;;;;21.50;5.13;;;8.10;1.00;;;;;;5439351;26;20551;-85
2024/04/22 08:57:01;;;;;;;17.88;4.75;;;8.10;1.00;;;;;;5439284;26;20220;-85
2024/04/22 08:59:27;;;;;;;17.90;4.93;;;8.20;1.00;;;;;;5471028;26;20258;-85
2024/04/22 09:02:05;;;;;;;18.75;4.80;;;8.30;1.00;;;;;;5468077;26;20244;-85
2024/04/22 09:04:37;;;;;;;17.90;4.47;;;8.40;1.00;;;;;;5469990;26;20216;-85
2024/04/22 09:10:53;;;;;;;20.25;5.38;;;8.30;1.00;;;;;;5359703;26;20278;-85
2024/04/22 09:13:18;;;;;;;16.65;4.40;;;8.40;1.00;;;;;;5470838;26;20240;-85
2024/04/22 09:15:44;;;;;;;19.57;4.90;;;8.50;1.00;;;;;;5471818;26;20209;-85
2024/04/22 09:18:12;;;;;;;15.57;4.03;;;8.40;1.00;;;;;;5470512;26;20494;-85
2024/04/22 09:21:07;;;;;;;14.30;3.25;;;8.50;1.00;;;;;;5438621;26;20478;-84
2024/04/22 09:23:43;;;;;;;14.32;2.83;;;8.40;1.00;;;;;;5431356;26;20209;-85
2024/04/22 09:26:18;;;;;;;15.43;3.22;;;8.40;1.00;;;;;;5441267;26;20205;-85
2024/04/22 09:28:47;;;;;;;17.83;4.03;;;8.60;1.00;;;;;;5470645;26;20170;-84
2024/04/22 09:31:17;;;;;;;15.80;3.65;;;8.80;1.00;;;;;;5437862;26;20257;-85
2024/04/22 09:33:44;;;;;;;17.75;3.97;;;8.90;1.00;;;;;;5469369;26;20174;-85
2024/04/22 09:36:10;;;;;;;16.83;3.38;;;9.00;1.00;;;;;;5468693;26;20258;-84
2024/04/22 09:38:38;;;;;;;15.20;3.65;;;9.20;1.00;;;;;;5468805;26;20206;-85
2024/04/22 09:41:04;;;;;;;15.10;2.83;;;9.20;1.00;;;;;;5466256;26;20251;-86
2024/04/22 09:43:37;;;;;;;14.80;3.20;;;9.40;1.00;;;;;;5436601;26;20282;-84
2024/04/22 09:46:03;;;;;;;14.80;2.80;;;9.50;1.00;;;;;;5468360;26;20178;-85
2024/04/22 09:48:30;;;;;;;15.00;3.33;;;9.60;1.00;;;;;;5468909;26;20213;-85
2024/04/22 09:51:00;;;;;;;13.60;2.65;;;9.80;1.00;;;;;;5468303;26;20225;-85
2024/04/22 09:53:26;;;;;;;15.20;2.88;;;10.00;1.00;;;;;;5437374;26;20220;-86
2024/04/22 09:56:04;;;;;;;14.43;2.67;;;10.10;1.00;;;;;;5438008;26;20223;-85
2024/04/22 09:58:32;;;;;;;15.10;3.05;;;10.20;1.00;;;;;;5468308;26;20205;-85
2024/04/22 10:00:58;;;;;;;14.68;2.60;;;10.40;1.00;;;;;;5438010;26;20251;-85
2024/04/22 10:03:26;;;;;;;14.60;3.00;;;10.60;1.00;;;;;;5468198;26;20257;-86
2024/04/22 10:05:55;;;;;;;14.15;2.65;;;10.70;99.90;;;;;;5464399;26;20488;-84
2024/04/22 10:08:21;;;;;;;14.65;3.05;;;10.80;99.90;;;;;;5468215;26;20248;-85
2024/04/22 10:10:47;;;;;;;16.43;2.60;;;10.60;99.90;;;;;;5467676;26;20238;-85
2024/04/22 10:13:14;;;;;;;14.20;2.40;;;10.60;99.90;;;;;;5435402;26;20217;-85
2024/04/22 10:15:40;;;;;;;14.88;2.38;;;10.50;99.90;;;;;;5464592;26;20205;-85
2024/04/22 10:18:12;;;;;;;14.82;2.40;;;10.60;99.90;;;;;;5468541;26;20213;-85
2024/04/22 10:20:41;;;;;;;15.45;2.20;;;10.60;99.90;;;;;;5469861;26;20221;-85
2024/04/22 10:23:08;;;;;;;14.23;2.30;;;10.80;99.90;;;;;;5436686;26;20240;-85
2024/04/22 10:25:33;;;;;;;14.02;2.38;;;10.90;99.90;;;;;;5467693;26;20197;-85
2024/04/22 10:27:59;;;;;;;13.63;2.67;;;11.00;99.90;;;;;;5438490;26;20248;-84
2024/04/22 10:30:36;;;;;;;13.43;2.10;;;11.00;99.90;;;;;;5470923;26;20278;-83
2024/04/22 10:33:02;;;;;;;13.00;2.10;;;10.90;99.90;;;;;;5500450;20;20555;-79
2024/04/22 10:35:29;;;;;;;13.20;1.75;;;11.00;99.90;;;;;;5408947;26;20203;-78
2024/04/22 10:37:56;;;;;;;14.02;2.50;;;11.20;99.90;;;;;;5408792;26;20206;-79
2024/04/22 10:40:22;;;;;;;16.63;2.80;;;11.40;99.90;;;;;;5377225;26;20256;-79
2024/04/22 10:42:48;;;;;;;14.40;2.37;;;11.50;99.90;;;;;;5408653;26;20588;-78
2024/04/22 10:45:13;;;;;;;12.90;2.00;;;11.50;99.90;;;;;;5377385;26;20949;-79
2024/04/22 10:47:39;;;;;;;12.83;2.27;;;11.50;99.90;;;;;;5408548;26;20485;-80
2024/04/22 10:50:15;;;;;;;13.20;2.30;;;11.90;99.90;;;;;;5408076;26;20583;-79
2024/04/22 10:52:41;;;;;;;14.75;2.70;;;12.10;99.90;;;;;;5377102;26;20452;-80
2024/04/22 10:55:07;;;;;;;13.20;2.53;;;12.20;1.00;;;;;;5408071;26;20719;-80
2024/04/22 10:57:34;;;;;;;15.23;2.33;;;11.70;1.00;;;;;;5408079;26;20584;-79
2024/04/22 11:00:01;;;;;;;15.02;2.47;;;11.40;99.90;;;;;;5408028;26;20250;-79
2024/04/22 11:02:30;;;;;;;15.68;2.28;;;11.20;99.90;;;;;;5407930;26;20210;-79
2024/04/22 11:04:57;;;;;;;14.10;2.15;;;10.90;99.90;;;;;;5407765;26;20207;-79
2024/04/22 11:07:24;;;;;;;14.70;3.00;;;10.80;99.90;;;;;;5408201;26;20812;-79
2024/04/22 11:09:51;;;;;;;14.18;2.80;;;10.50;99.90;;;;;;5411566;26;20207;-79
2024/04/22 11:12:17;;;;;;;14.75;3.15;;;10.50;99.90;;;;;;5411486;26;20207;-80
2024/04/22 11:14:43;;;;;;;16.20;3.80;;;10.60;1.00;;;;;;5411420;26;20207;-79
2024/04/22 11:17:10;;;;;;;14.55;3.40;;;10.50;1.00;;;;;;5411427;26;20214;-80
2024/04/22 11:19:36;;;;;;;15.45;3.08;;;10.70;1.00;;;;;;5411522;26;20217;-79
2024/04/22 11:22:02;;;;;;;17.80;3.60;;;10.80;1.00;;;;;;5411199;26;20365;-80
2024/04/22 11:24:28;;;;;;;14.80;3.27;;;10.90;1.00;;;;;;5411484;26;20432;-80
2024/04/22 11:26:53;;;;;;;13.70;3.05;;;11.00;1.00;;;;;;5379978;26;20873;-79
2024/04/22 11:29:19;;;;;;;14.40;2.63;;;11.00;1.00;;;;;;5410884;26;20315;-79
2024/04/22 11:31:46;;;;;;;13.95;2.00;;;11.00;1.00;;;;;;5407284;26;20245;-79
2024/04/22 11:34:11;;;;;;;13.90;2.53;;;11.00;99.90;;;;;;5375681;26;20602;-80
2024/04/22 11:36:37;;;;;;;14.70;2.97;;;11.00;1.00;;;;;;5375935;26;20219;-79
2024/04/22 11:39:16;;;;;;;16.23;2.20;;;11.20;1.00;;;;;;5375573;26;20223;-80
2024/04/22 11:41:42;;;;;;;13.07;2.22;;;11.40;99.90;;;;;;5375320;26;20569;-80
2024/04/22 11:44:07;;;;;;;14.23;2.10;;;11.50;99.90;;;;;;5375487;26;20246;-80
2024/04/22 11:46:33;;;;;;;13.60;2.47;;;11.40;99.90;;;;;;5375881;26;20557;-79
2024/04/22 11:48:59;;;;;;;14.00;2.60;;;11.60;99.90;;;;;;5375672;26;20208;-79
2024/04/22 11:51:26;;;;;;;13.13;2.13;;;11.70;1.00;;;;;;5375613;26;20258;-80
2024/04/22 11:53:53;;;;;;;13.25;2.40;;;11.90;1.00;;;;;;5375345;26;20429;-79
2024/04/22 11:56:19;;;;;;;14.45;2.58;;;12.00;1.00;;;;;;5375545;26;20207;-79
2024/04/22 11:58:45;;;;;;;14.80;2.67;;;12.00;99.90;;;;;;5344677;26;20323;-80
2024/04/22 12:01:11;;;;;;;15.00;3.80;;;12.30;99.90;;;;;;5375572;26;20224;-80
2024/04/22 12:03:36;;;;;;;13.73;2.93;;;12.30;99.90;;;;;;5375367;26;20727;-80
2024/04/22 12:06:02;;;;;;;13.97;2.53;;;12.00;99.90;;;;;;5375163;26;20262;-80
2024/04/22 12:08:28;;;;;;;14.95;3.33;;;12.00;99.90;;;;;;5375069;26;20208;-79
2024/04/22 12:10:54;;;;;;;14.10;2.60;;;12.00;99.90;;;;;;5344625;26;20295;-79
2024/04/22 12:13:21;;;;;;;14.27;2.95;;;12.30;99.90;;;;;;5375299;26;20239;-80
2024/04/22 12:15:46;;;;;;;16.02;3.03;;;12.30;99.90;;;;;;5375172;26;20212;-79
2024/04/22 12:18:12;;;;;;;14.40;3.40;;;12.50;99.90;;;;;;5375602;26;20208;-79
2024/04/22 12:20:38;;;;;;;15.20;3.43;;;12.80;99.90;;;;;;5374648;26;20216;-80
2024/04/22 12:23:04;;;;;;;14.83;3.20;;;12.90;99.90;;;;;;5375584;26;20212;-80
2024/04/22 12:25:29;;;;;;;14.25;3.55;;;12.60;99.90;;;;;;5375571;26;20271;-80
2024/04/22 12:27:55;;;;;;;17.33;3.83;;;12.40;99.90;;;;;;5375053;26;20208;-81
2024/04/22 12:30:21;;;;;;;14.27;3.50;;;12.40;99.90;;;;;;5375079;26;20219;-80
2024/04/22 12:32:46;;;;;;;15.67;3.37;;;12.50;99.90;;;;;;5375185;26;20232;-80
2024/04/22 12:35:12;;;;;;;15.20;3.30;;;12.70;99.90;;;;;;5375121;26;20682;-82
2024/04/22 12:37:38;;;;;;;16.87;3.67;;;12.90;99.90;;;;;;5375111;26;20593;-81
2024/04/22 12:40:04;;;;;;;15.63;3.37;;;12.70;99.90;;;;;;5374861;26;20249;-80
2024/04/22 12:42:32;;;;;;;17.33;5.95;;;12.80;99.90;;;;;;5374999;26;20297;-80
2024/04/22 12:44:58;;;;;;;16.90;3.75;;;12.60;99.90;;;;;;5374679;26;20329;-80
2024/04/22 12:52:51;;;;;;;14.50;2.60;;;12.00;99.90;;;;;;5375584;26;20260;-79
2024/04/22 12:55:17;;;;;;;14.93;2.87;;;11.70;99.90;;;;;;5374470;26;20689;-79
2024/04/22 12:57:43;;;;;;;15.03;2.60;;;11.60;99.90;;;;;;5374269;26;20613;-80
2024/04/22 13:00:12;;;;;;;16.70;2.50;;;11.20;99.90;;;;;;5374412;26;20312;-80
2024/04/22 13:02:39;;;;;;;13.80;2.45;;;10.90;99.90;;;;;;5374534;26;20246;-80
2024/04/22 13:05:05;;;;;;;12.95;1.98;;;10.70;99.90;;;;;;5374256;26;20219;-79
2024/04/22 13:07:31;;;;;;;14.05;2.45;;;10.60;99.90;;;;;;5343515;26;20220;-79